sensor_id;sensor_type;location;lat;lon;timestamp;pressure;altitude;pressure_sealevel;temperature;humidity
36600;BME280;35385;55.668;37.508;2023-02-20T00:00:29;97139.47;;;-4.53;100.00
36600;BME280;35385;55.668;37.508;2023-02-20T00:01:31;97167.00;;;-4.35;100.00
36600;BME280;35385;55.668;37.508;2023-02-20T00:02:32;97178.31;;;-4.22;100.00
36600;BME280;35385;55.668;37.508;2023-02-20T00:03:33;97179.09;;;-4.34;100.00
36600;BME280;35385;55.668;37.508;2023-02-20T00:04:33;97175.34;;;-4.30;100.00
36600;BME280;35385;55.668;37.508;2023-02-20T00:05:34;97176.19;;;-4.44;100.00
36600;BME280;35385;55.668;37.508;2023-02-20T00:06:35;97180.38;;;-4.41;100.00
36600;BME280;35385;55.668;37.508;2023-02-20T00:07:35;97180.66;;;-4.46;100.00
36600;BME280;35385;55.668;37.508;2023-02-20T00:08:36;97179.47;;;-4.40;100.00
36600;BME280;35385;55.668;37.508;2023-02-20T00:09:36;97123.03;;;-4.82;100.00
36600;BME280;35385;55.668;37.508;2023-02-20T00:10:37;97173.25;;;-4.52;100.00
36600;BME280;35385;55.668;37.508;2023-02-20T00:11:38;97176.09;;;-4.42;100.00
36600;BME280;35385;55.668;37.508;2023-02-20T00:12:38;97169.81;;;-4.52;100.00
36600;BME280;35385;55.668;37.508;2023-02-20T00:13:47;97173.25;;;-4.52;100.00
36600;BME280;35385;55.668;37.508;2023-02-20T00:14:48;97185.25;;;-4.49;100.00
36600;BME280;35385;55.668;37.508;2023-02-20T00:15:48;97173.59;;;-4.44;100.00
36600;BME280;35385;55.668;37.508;2023-02-20T00:16:49;97174.34;;;-4.42;100.00
36600;BME280;35385;55.668;37.508;2023-02-20T00:17:49;97166.69;;;-4.31;100.00
36600;BME280;35385;55.668;37.508;2023-02-20T00:18:50;97173.66;;;-4.31;100.00
36600;BME280;35385;55.668;37.508;2023-02-20T00:19:51;97178.25;;;-4.35;100.00
36600;BME280;35385;55.668;37.508;2023-02-20T00:20:51;97158.63;;;-4.40;100.00
36600;BME280;35385;55.668;37.508;2023-02-20T00:21:52;97140.97;;;-4.49;100.00
36600;BME280;35385;55.668;37.508;2023-02-20T00:22:53;97177.19;;;-4.32;100.00
36600;BME280;35385;55.668;37.508;2023-02-20T00:23:54;97172.66;;;-4.29;100.00
36600;BME280;35385;55.668;37.508;2023-02-20T00:24:55;97180.56;;;-4.30;100.00
36600;BME280;35385;55.668;37.508;2023-02-20T00:25:55;97168.28;;;-4.28;100.00
36600;BME280;35385;55.668;37.508;2023-02-20T00:26:56;97174.50;;;-4.31;100.00
36600;BME280;35385;55.668;37.508;2023-02-20T00:27:56;97186.34;;;-4.39;100.00
36600;BME280;35385;55.668;37.508;2023-02-20T00:28:57;97171.91;;;-4.45;100.00
36600;BME280;35385;55.668;37.508;2023-02-20T00:29:57;97177.50;;;-4.37;100.00
36600;BME280;35385;55.668;37.508;2023-02-20T00:30:58;97181.50;;;-4.45;100.00
36600;BME280;35385;55.668;37.508;2023-02-20T00:31:58;97181.59;;;-4.47;100.00
36600;BME280;35385;55.668;37.508;2023-02-20T00:32:59;97163.66;;;-4.51;100.00
36600;BME280;35385;55.668;37.508;2023-02-20T00:34:00;97138.81;;;-4.71;100.00
36600;BME280;35385;55.668;37.508;2023-02-20T00:35:00;97127.97;;;-4.78;100.00
36600;BME280;35385;55.668;37.508;2023-02-20T00:36:01;97131.75;;;-4.69;100.00
36600;BME280;35385;55.668;37.508;2023-02-20T00:37:02;97178.81;;;-4.44;100.00
36600;BME280;35385;55.668;37.508;2023-02-20T00:38:02;97178.19;;;-4.47;100.00
36600;BME280;35385;55.668;37.508;2023-02-20T00:39:03;97110.19;;;-4.85;100.00
36600;BME280;35385;55.668;37.508;2023-02-20T00:40:04;97179.81;;;-4.46;100.00
36600;BME280;35385;55.668;37.508;2023-02-20T00:41:05;97176.59;;;-4.36;100.00
36600;BME280;35385;55.668;37.508;2023-02-20T00:42:05;97175.34;;;-4.30;100.00
36600;BME280;35385;55.668;37.508;2023-02-20T00:43:06;97178.53;;;-4.39;100.00
36600;BME280;35385;55.668;37.508;2023-02-20T00:44:06;97168.00;;;-4.38;100.00
36600;BME280;35385;55.668;37.508;2023-02-20T00:45:07;97183.25;;;-4.32;100.00
36600;BME280;35385;55.668;37.508;2023-02-20T00:46:12;97175.94;;;-4.39;100.00
36600;BME280;35385;55.668;37.508;2023-02-20T00:47:13;97116.31;;;-4.86;100.00
36600;BME280;35385;55.668;37.508;2023-02-20T00:48:14;97170.16;;;-4.58;100.00
36600;BME280;35385;55.668;37.508;2023-02-20T00:49:14;97174.53;;;-4.59;100.00
36600;BME280;35385;55.668;37.508;2023-02-20T00:50:16;97175.19;;;-4.70;100.00
36600;BME280;35385;55.668;37.508;2023-02-20T00:51:17;97169.06;;;-4.54;100.00
36600;BME280;35385;55.668;37.508;2023-02-20T00:52:17;97158.72;;;-4.56;100.00
36600;BME280;35385;55.668;37.508;2023-02-20T00:53:18;97172.31;;;-4.51;100.00
36600;BME280;35385;55.668;37.508;2023-02-20T00:54:18;97166.09;;;-4.48;100.00
36600;BME280;35385;55.668;37.508;2023-02-20T00:55:19;97168.19;;;-4.41;100.00
36600;BME280;35385;55.668;37.508;2023-02-20T00:56:19;97129.41;;;-4.74;100.00
36600;BME280;35385;55.668;37.508;2023-02-20T00:57:20;97169.06;;;-4.69;100.00
36600;BME280;35385;55.668;37.508;2023-02-20T00:58:20;97101.53;;;-5.00;100.00
36600;BME280;35385;55.668;37.508;2023-02-20T00:59:21;97168.13;;;-4.53;100.00
36600;BME280;35385;55.668;37.508;2023-02-20T01:00:25;97171.47;;;-4.51;100.00
36600;BME280;35385;55.668;37.508;2023-02-20T01:01:26;97161.59;;;-4.60;100.00
36600;BME280;35385;55.668;37.508;2023-02-20T01:02:27;97165.44;;;-4.52;100.00
36600;BME280;35385;55.668;37.508;2023-02-20T01:03:27;97163.81;;;-4.40;100.00
36600;BME280;35385;55.668;37.508;2023-02-20T01:04:28;97166.78;;;-4.46;100.00
36600;BME280;35385;55.668;37.508;2023-02-20T01:05:28;97165.59;;;-4.55;100.00
36600;BME280;35385;55.668;37.508;2023-02-20T01:06:29;97164.19;;;-4.46;100.00
36600;BME280;35385;55.668;37.508;2023-02-20T01:07:29;97174.25;;;-4.40;100.00
36600;BME280;35385;55.668;37.508;2023-02-20T01:08:30;97165.88;;;-4.45;100.00
36600;BME280;35385;55.668;37.508;2023-02-20T01:09:31;97165.59;;;-4.55;100.00
36600;BME280;35385;55.668;37.508;2023-02-20T01:10:31;97167.38;;;-4.55;100.00
36600;BME280;35385;55.668;37.508;2023-02-20T01:11:32;97158.81;;;-4.57;100.00
36600;BME280;35385;55.668;37.508;2023-02-20T01:12:32;97163.28;;;-4.59;100.00
36600;BME280;35385;55.668;37.508;2023-02-20T01:13:33;97176.59;;;-4.64;100.00
36600;BME280;35385;55.668;37.508;2023-02-20T01:14:33;97175.38;;;-4.58;100.00
36600;BME280;35385;55.668;37.508;2023-02-20T01:15:34;97123.78;;;-4.94;100.00
36600;BME280;35385;55.668;37.508;2023-02-20T01:16:34;97170.91;;;-4.71;100.00
36600;BME280;35385;55.668;37.508;2023-02-20T01:17:35;97160.66;;;-4.74;100.00
36600;BME280;35385;55.668;37.508;2023-02-20T01:18:35;97164.50;;;-4.65;100.00
36600;BME280;35385;55.668;37.508;2023-02-20T01:19:36;97158.16;;;-4.75;100.00
36600;BME280;35385;55.668;37.508;2023-02-20T01:20:37;97162.34;;;-4.73;100.00
36600;BME280;35385;55.668;37.508;2023-02-20T01:21:37;97159.56;;;-4.84;100.00
36600;BME280;35385;55.668;37.508;2023-02-20T01:22:38;97172.03;;;-4.75;100.00
36600;BME280;35385;55.668;37.508;2023-02-20T01:23:38;97176.03;;;-4.69;100.00
36600;BME280;35385;55.668;37.508;2023-02-20T01:24:39;97163.84;;;-4.69;100.00
36600;BME280;35385;55.668;37.508;2023-02-20T01:25:41;97169.97;;;-4.70;100.00
36600;BME280;35385;55.668;37.508;2023-02-20T01:26:43;97052.34;;;-5.47;100.00
36600;BME280;35385;55.668;37.508;2023-02-20T01:27:44;97175.94;;;-4.68;100.00
36600;BME280;35385;55.668;37.508;2023-02-20T01:28:46;97175.75;;;-4.65;100.00
36600;BME280;35385;55.668;37.508;2023-02-20T01:29:48;97169.72;;;-4.65;100.00
36600;BME280;35385;55.668;37.508;2023-02-20T01:30:49;97173.16;;;-4.50;100.00
36600;BME280;35385;55.668;37.508;2023-02-20T01:31:50;97169.63;;;-4.49;100.00
36600;BME280;35385;55.668;37.508;2023-02-20T01:32:51;97172.13;;;-4.48;100.00
36600;BME280;35385;55.668;37.508;2023-02-20T01:33:51;97181.22;;;-4.41;100.00
36600;BME280;35385;55.668;37.508;2023-02-20T01:34:52;97180.28;;;-4.40;100.00
36600;BME280;35385;55.668;37.508;2023-02-20T01:35:52;97175.84;;;-4.38;100.00
36600;BME280;35385;55.668;37.508;2023-02-20T01:36:54;97173.88;;;-4.34;100.00
36600;BME280;35385;55.668;37.508;2023-02-20T01:37:55;97171.81;;;-4.29;100.00
36600;BME280;35385;55.668;37.508;2023-02-20T01:38:56;97174.31;;;-4.28;100.00
36600;BME280;35385;55.668;37.508;2023-02-20T01:39:57;97172.56;;;-4.27;100.00
36600;BME280;35385;55.668;37.508;2023-02-20T01:40:57;97174.97;;;-4.24;100.00
36600;BME280;35385;55.668;37.508;2023-02-20T01:42:04;97165.47;;;-4.25;100.00
36600;BME280;35385;55.668;37.508;2023-02-20T01:43:06;97171.44;;;-4.23;100.00
36600;BME280;35385;55.668;37.508;2023-02-20T01:44:26;97177.94;;;-4.16;100.00
36600;BME280;35385;55.668;37.508;2023-02-20T01:45:32;97177.75;;;-4.13;100.00
36600;BME280;35385;55.668;37.508;2023-02-20T01:46:54;97184.88;;;-4.02;100.00
36600;BME280;35385;55.668;37.508;2023-02-20T01:47:56;97188.16;;;-4.13;100.00
36600;BME280;35385;55.668;37.508;2023-02-20T01:50:40;97182.78;;;-4.24;100.00
36600;BME280;35385;55.668;37.508;2023-02-20T01:51:47;97151.28;;;-4.48;100.00
36600;BME280;35385;55.668;37.508;2023-02-20T01:52:53;97175.53;;;-4.19;100.00
36600;BME280;35385;55.668;37.508;2023-02-20T01:53:55;97172.75;;;-4.30;100.00
36600;BME280;35385;55.668;37.508;2023-02-20T01:54:58;97126.91;;;-4.75;100.00
36600;BME280;35385;55.668;37.508;2023-02-20T01:56:03;97175.94;;;-4.39;100.00
36600;BME280;35385;55.668;37.508;2023-02-20T01:57:08;97178.50;;;-4.25;100.00
36600;BME280;35385;55.668;37.508;2023-02-20T01:58:16;97185.22;;;-4.21;100.00
36600;BME280;35385;55.668;37.508;2023-02-20T01:59:20;97182.78;;;-4.24;100.00
36600;BME280;35385;55.668;37.508;2023-02-20T02:00:23;97169.19;;;-4.29;100.00
36600;BME280;35385;55.668;37.508;2023-02-20T02:01:24;97162.81;;;-4.38;100.00
36600;BME280;35385;55.668;37.508;2023-02-20T02:02:25;97171.63;;;-4.26;100.00
36600;BME280;35385;55.668;37.508;2023-02-20T02:03:30;97176.38;;;-4.33;100.00
36600;BME280;35385;55.668;37.508;2023-02-20T02:04:33;97164.16;;;-4.32;100.00
36600;BME280;35385;55.668;37.508;2023-02-20T02:05:37;97182.63;;;-4.35;100.00
36600;BME280;35385;55.668;37.508;2023-02-20T02:06:42;97139.09;;;-4.62;100.00
36600;BME280;35385;55.668;37.508;2023-02-20T02:07:44;97133.34;;;-4.67;100.00
36600;BME280;35385;55.668;37.508;2023-02-20T02:08:45;97180.22;;;-4.52;100.00
36600;BME280;35385;55.668;37.508;2023-02-20T02:09:51;97187.84;;;-4.49;100.00
36600;BME280;35385;55.668;37.508;2023-02-20T02:10:58;97177.88;;;-4.43;100.00
36600;BME280;35385;55.668;37.508;2023-02-20T02:11:59;97193.91;;;-4.49;100.00
36600;BME280;35385;55.668;37.508;2023-02-20T02:13:01;97177.22;;;-4.46;100.00
36600;BME280;35385;55.668;37.508;2023-02-20T02:14:02;97178.91;;;-4.59;100.00
36600;BME280;35385;55.668;37.508;2023-02-20T02:15:08;97165.44;;;-4.66;100.00
36600;BME280;35385;55.668;37.508;2023-02-20T02:17:55;97135.84;;;-4.79;100.00
36600;BME280;35385;55.668;37.508;2023-02-20T02:28:24;97202.97;;;-4.13;100.00
36600;BME280;35385;55.668;37.508;2023-02-20T02:33:12;97200.31;;;-4.40;100.00
36600;BME280;35385;55.668;37.508;2023-02-20T02:39:39;97215.28;;;-4.58;100.00
36600;BME280;35385;55.668;37.508;2023-02-20T02:40:49;97196.31;;;-4.74;100.00
36600;BME280;35385;55.668;37.508;2023-02-20T02:44:50;97168.31;;;-4.71;100.00
36600;BME280;35385;55.668;37.508;2023-02-20T02:46:02;97136.97;;;-4.97;100.00
36600;BME280;35385;55.668;37.508;2023-02-20T02:47:08;97208.88;;;-4.67;100.00
36600;BME280;35385;55.668;37.508;2023-02-20T02:48:29;97211.75;;;-4.71;100.00
36600;BME280;35385;55.668;37.508;2023-02-20T02:50:59;97155.66;;;-5.05;100.00
36600;BME280;35385;55.668;37.508;2023-02-20T02:52:02;97195.38;;;-4.73;100.00
36600;BME280;35385;55.668;37.508;2023-02-20T02:53:07;97218.66;;;-4.56;100.00
36600;BME280;35385;55.668;37.508;2023-02-20T02:54:16;97211.50;;;-4.52;100.00
36600;BME280;35385;55.668;37.508;2023-02-20T02:55:22;97206.47;;;-4.55;100.00
36600;BME280;35385;55.668;37.508;2023-02-20T02:56:33;97197.72;;;-4.54;100.00
36600;BME280;35385;55.668;37.508;2023-02-20T02:57:33;97159.38;;;-4.81;100.00
36600;BME280;35385;55.668;37.508;2023-02-20T02:58:34;97213.25;;;-4.67;100.00
36600;BME280;35385;55.668;37.508;2023-02-20T02:59:35;97206.44;;;-4.84;100.00
36600;BME280;35385;55.668;37.508;2023-02-20T03:00:46;97210.53;;;-4.80;100.00
36600;BME280;35385;55.668;37.508;2023-02-20T03:02:04;97203.94;;;-4.71;100.00
36600;BME280;35385;55.668;37.508;2023-02-20T03:04:09;97182.44;;;-4.89;100.00
36600;BME280;35385;55.668;37.508;2023-02-20T03:05:14;97193.06;;;-4.92;100.00
36600;BME280;35385;55.668;37.508;2023-02-20T03:06:20;97198.44;;;-4.95;100.00
36600;BME280;35385;55.668;37.508;2023-02-20T03:07:24;97161.09;;;-5.24;100.00
36600;BME280;35385;55.668;37.508;2023-02-20T03:08:47;97203.72;;;-4.96;100.00
36600;BME280;35385;55.668;37.508;2023-02-20T03:10:02;97212.38;;;-4.96;100.00
36600;BME280;35385;55.668;37.508;2023-02-20T03:11:08;97199.91;;;-5.05;100.00
36600;BME280;35385;55.668;37.508;2023-02-20T03:12:12;97211.97;;;-5.04;100.00
36600;BME280;35385;55.668;37.508;2023-02-20T03:13:14;97211.13;;;-5.05;100.00
36600;BME280;35385;55.668;37.508;2023-02-20T03:14:20;97145.25;;;-5.49;100.00
36600;BME280;35385;55.668;37.508;2023-02-20T03:15:45;97199.34;;;-5.10;100.00
36600;BME280;35385;55.668;37.508;2023-02-20T03:17:08;97203.63;;;-5.09;100.00
36600;BME280;35385;55.668;37.508;2023-02-20T03:18:16;97207.22;;;-5.12;100.00
36600;BME280;35385;55.668;37.508;2023-02-20T03:19:26;97193.47;;;-5.14;100.00
36600;BME280;35385;55.668;37.508;2023-02-20T03:20:29;97155.00;;;-5.53;100.00
36600;BME280;35385;55.668;37.508;2023-02-20T03:21:30;97204.34;;;-5.21;100.00
36600;BME280;35385;55.668;37.508;2023-02-20T03:22:40;97172.53;;;-5.26;100.00
36600;BME280;35385;55.668;37.508;2023-02-20T03:23:47;97205.13;;;-5.05;100.00
36600;BME280;35385;55.668;37.508;2023-02-20T03:24:53;97188.09;;;-5.11;100.00
36600;BME280;35385;55.668;37.508;2023-02-20T03:26:04;97200.84;;;-5.06;100.00
36600;BME280;35385;55.668;37.508;2023-02-20T03:27:06;97206.66;;;-5.17;100.00
36600;BME280;35385;55.668;37.508;2023-02-20T03:28:14;97214.88;;;-5.09;100.00
36600;BME280;35385;55.668;37.508;2023-02-20T03:29:22;97210.50;;;-5.08;100.00
36600;BME280;35385;55.668;37.508;2023-02-20T03:30:30;97204.09;;;-5.32;100.00
36600;BME280;35385;55.668;37.508;2023-02-20T03:31:47;97201.63;;;-5.34;100.00
36600;BME280;35385;55.668;37.508;2023-02-20T03:33:17;97209.63;;;-5.23;100.00
36600;BME280;35385;55.668;37.508;2023-02-20T03:34:38;97209.94;;;-5.43;100.00
36600;BME280;35385;55.668;37.508;2023-02-20T03:35:59;97200.94;;;-5.38;100.00
36600;BME280;35385;55.668;37.508;2023-02-20T03:37:22;97195.00;;;-5.40;100.00
36600;BME280;35385;55.668;37.508;2023-02-20T03:38:47;97217.59;;;-5.26;100.00
36600;BME280;35385;55.668;37.508;2023-02-20T03:40:12;97215.00;;;-5.26;100.00
36600;BME280;35385;55.668;37.508;2023-02-20T03:41:32;97217.53;;;-5.24;100.00
36600;BME280;35385;55.668;37.508;2023-02-20T03:42:57;97215.09;;;-5.27;100.00
36600;BME280;35385;55.668;37.508;2023-02-20T03:44:18;97219.03;;;-5.20;100.00
36600;BME280;35385;55.668;37.508;2023-02-20T03:45:22;97195.69;;;-5.22;100.00
36600;BME280;35385;55.668;37.508;2023-02-20T03:46:26;97158.31;;;-5.35;100.00
36600;BME280;35385;55.668;37.508;2023-02-20T03:47:30;97226.50;;;-5.00;100.00
36600;BME280;35385;55.668;37.508;2023-02-20T03:48:38;97216.28;;;-4.89;100.00
36600;BME280;35385;55.668;37.508;2023-02-20T03:49:43;97183.06;;;-5.00;100.00
36600;BME280;35385;55.668;37.508;2023-02-20T03:50:46;97210.38;;;-4.77;100.00
36600;BME280;35385;55.668;37.508;2023-02-20T03:52:05;97227.09;;;-4.81;100.00
36600;BME280;35385;55.668;37.508;2023-02-20T03:53:06;97223.06;;;-4.86;100.00
36600;BME280;35385;55.668;37.508;2023-02-20T03:54:07;97213.31;;;-4.97;100.00
36600;BME280;35385;55.668;37.508;2023-02-20T03:55:09;97214.78;;;-5.07;100.00
36600;BME280;35385;55.668;37.508;2023-02-20T03:56:16;97144.81;;;-5.42;100.00
36600;BME280;35385;55.668;37.508;2023-02-20T03:57:53;97226.28;;;-5.11;100.00
36600;BME280;35385;55.668;37.508;2023-02-20T03:58:51;97221.22;;;-5.28;100.00
36600;BME280;35385;55.668;37.508;2023-02-20T04:00:02;97221.06;;;-5.25;100.00
36600;BME280;35385;55.668;37.508;2023-02-20T04:01:07;97218.09;;;-5.49;100.00
36600;BME280;35385;55.668;37.508;2023-02-20T04:02:21;97210.69;;;-5.41;100.00
36600;BME280;35385;55.668;37.508;2023-02-20T04:03:25;97213.78;;;-5.35;100.00
36600;BME280;35385;55.668;37.508;2023-02-20T04:04:32;97210.00;;;-5.45;100.00
36600;BME280;35385;55.668;37.508;2023-02-20T04:05:36;97178.50;;;-5.54;100.00
36600;BME280;35385;55.668;37.508;2023-02-20T04:06:39;97220.72;;;-5.19;100.00
36600;BME280;35385;55.668;37.508;2023-02-20T04:07:50;97175.94;;;-5.40;100.00
36600;BME280;35385;55.668;37.508;2023-02-20T04:08:57;97233.94;;;-5.08;100.00
36600;BME280;35385;55.668;37.508;2023-02-20T04:10:02;97161.78;;;-5.50;100.00
36600;BME280;35385;55.668;37.508;2023-02-20T04:11:11;97205.25;;;-5.22;100.00
36600;BME280;35385;55.668;37.508;2023-02-20T04:12:22;97200.56;;;-5.31;100.00
36600;BME280;35385;55.668;37.508;2023-02-20T04:13:25;97221.59;;;-5.35;100.00
36600;BME280;35385;55.668;37.508;2023-02-20T04:14:27;97206.63;;;-5.31;100.00
36600;BME280;35385;55.668;37.508;2023-02-20T04:15:29;97218.78;;;-5.31;100.00
36600;BME280;35385;55.668;37.508;2023-02-20T04:16:35;97220.38;;;-5.29;100.00
36600;BME280;35385;55.668;37.508;2023-02-20T04:17:42;97217.09;;;-5.32;100.00
36600;BME280;35385;55.668;37.508;2023-02-20T04:18:44;97220.09;;;-5.39;100.00
36600;BME280;35385;55.668;37.508;2023-02-20T04:19:45;97215.88;;;-5.41;100.00
36600;BME280;35385;55.668;37.508;2023-02-20T04:20:48;97180.59;;;-5.61;100.00
36600;BME280;35385;55.668;37.508;2023-02-20T04:21:56;97162.84;;;-5.68;100.00
36600;BME280;35385;55.668;37.508;2023-02-20T04:23:04;97177.66;;;-5.55;100.00
36600;BME280;35385;55.668;37.508;2023-02-20T04:24:08;97164.66;;;-5.55;100.00
36600;BME280;35385;55.668;37.508;2023-02-20T04:26:18;97219.88;;;-5.20;100.00
36600;BME280;35385;55.668;37.508;2023-02-20T04:27:20;97236.41;;;-5.21;100.00
36600;BME280;35385;55.668;37.508;2023-02-20T04:28:22;97239.44;;;-5.28;100.00
36600;BME280;35385;55.668;37.508;2023-02-20T04:29:24;97237.66;;;-5.28;100.00
36600;BME280;35385;55.668;37.508;2023-02-20T04:30:25;97234.41;;;-5.31;100.00
36600;BME280;35385;55.668;37.508;2023-02-20T04:31:26;97238.75;;;-5.32;100.00
36600;BME280;35385;55.668;37.508;2023-02-20T04:32:26;97186.72;;;-5.62;100.00
36600;BME280;35385;55.668;37.508;2023-02-20T04:33:27;97234.00;;;-5.40;100.00
36600;BME280;35385;55.668;37.508;2023-02-20T04:34:28;97188.09;;;-5.71;100.00
36600;BME280;35385;55.668;37.508;2023-02-20T04:35:28;97159.50;;;-5.86;100.00
36600;BME280;35385;55.668;37.508;2023-02-20T04:36:29;97232.16;;;-5.38;100.00
36600;BME280;35385;55.668;37.508;2023-02-20T04:37:29;97218.56;;;-5.43;100.00
36600;BME280;35385;55.668;37.508;2023-02-20T04:38:30;97228.97;;;-5.43;100.00
36600;BME280;35385;55.668;37.508;2023-02-20T04:39:30;97228.97;;;-5.43;100.00
36600;BME280;35385;55.668;37.508;2023-02-20T04:40:31;97227.00;;;-5.53;100.00
36600;BME280;35385;55.668;37.508;2023-02-20T04:41:31;97238.78;;;-5.48;100.00
36600;BME280;35385;55.668;37.508;2023-02-20T04:42:32;97222.09;;;-5.44;100.00
36600;BME280;35385;55.668;37.508;2023-02-20T04:43:32;97228.63;;;-5.37;100.00
36600;BME280;35385;55.668;37.508;2023-02-20T04:44:33;97212.97;;;-5.51;100.00
36600;BME280;35385;55.668;37.508;2023-02-20T04:45:34;97231.34;;;-5.38;100.00
36600;BME280;35385;55.668;37.508;2023-02-20T04:46:35;97231.59;;;-5.43;100.00
36600;BME280;35385;55.668;37.508;2023-02-20T04:47:35;97172.50;;;-5.71;100.00
36600;BME280;35385;55.668;37.508;2023-02-20T04:48:36;97223.91;;;-5.30;100.00
36600;BME280;35385;55.668;37.508;2023-02-20T04:49:36;97231.84;;;-5.17;100.00
36600;BME280;35385;55.668;37.508;2023-02-20T04:50:37;97233.59;;;-5.18;100.00
36600;BME280;35385;55.668;37.508;2023-02-20T04:51:37;97236.13;;;-5.16;100.00
36600;BME280;35385;55.668;37.508;2023-02-20T04:52:38;97209.31;;;-5.32;100.00
36600;BME280;35385;55.668;37.508;2023-02-20T04:53:40;97220.78;;;-5.21;100.00
36600;BME280;35385;55.668;37.508;2023-02-20T04:54:41;97232.50;;;-5.14;100.00
36600;BME280;35385;55.668;37.508;2023-02-20T04:55:42;97231.84;;;-5.17;100.00
36600;BME280;35385;55.668;37.508;2023-02-20T04:56:43;97209.94;;;-5.43;100.00
36600;BME280;35385;55.668;37.508;2023-02-20T04:57:43;97234.59;;;-5.35;100.00
36600;BME280;35385;55.668;37.508;2023-02-20T04:58:47;97185.41;;;-5.69;100.00
36600;BME280;35385;55.668;37.508;2023-02-20T04:59:48;97240.53;;;-5.32;100.00
36600;BME280;35385;55.668;37.508;2023-02-20T05:00:49;97224.06;;;-5.33;100.00
36600;BME280;35385;55.668;37.508;2023-02-20T05:01:50;97241.31;;;-5.16;100.00
36600;BME280;35385;55.668;37.508;2023-02-20T05:02:51;97245.06;;;-5.20;100.00
36600;BME280;35385;55.668;37.508;2023-02-20T05:03:52;97165.06;;;-5.62;100.00
36600;BME280;35385;55.668;37.508;2023-02-20T05:04:52;97216.72;;;-5.41;100.00
36600;BME280;35385;55.668;37.508;2023-02-20T05:05:53;97235.00;;;-5.26;100.00
36600;BME280;35385;55.668;37.508;2023-02-20T05:06:55;97207.31;;;-5.43;100.00
36600;BME280;35385;55.668;37.508;2023-02-20T05:07:58;97216.38;;;-5.35;100.00
36600;BME280;35385;55.668;37.508;2023-02-20T05:08:59;97248.75;;;-5.24;100.00
36600;BME280;35385;55.668;37.508;2023-02-20T05:10:00;97239.88;;;-5.36;100.00
36600;BME280;35385;55.668;37.508;2023-02-20T05:11:00;97248.75;;;-5.24;100.00
36600;BME280;35385;55.668;37.508;2023-02-20T05:12:01;97239.72;;;-5.19;100.00
36600;BME280;35385;55.668;37.508;2023-02-20T05:13:02;97245.09;;;-5.06;100.00
36600;BME280;35385;55.668;37.508;2023-02-20T05:14:03;97251.78;;;-5.02;100.00
36600;BME280;35385;55.668;37.508;2023-02-20T05:15:04;97220.72;;;-5.19;100.00
36600;BME280;35385;55.668;37.508;2023-02-20T05:16:05;97259.72;;;-4.89;100.00
36600;BME280;35385;55.668;37.508;2023-02-20T05:17:07;97231.06;;;-4.89;100.00
36600;BME280;35385;55.668;37.508;2023-02-20T05:18:08;97257.03;;;-4.74;100.00
36600;BME280;35385;55.668;37.508;2023-02-20T05:19:10;97243.84;;;-4.71;100.00
36600;BME280;35385;55.668;37.508;2023-02-20T05:20:11;97254.25;;;-4.71;100.00
36600;BME280;35385;55.668;37.508;2023-02-20T05:21:13;97245.34;;;-4.67;100.00
36600;BME280;35385;55.668;37.508;2023-02-20T05:22:32;97188.16;;;-5.26;100.00
36600;BME280;35385;55.668;37.508;2023-02-20T05:23:32;97256.47;;;-4.93;100.00
36600;BME280;35385;55.668;37.508;2023-02-20T05:24:34;97264.63;;;-4.99;100.00
36600;BME280;35385;55.668;37.508;2023-02-20T05:25:35;97250.94;;;-5.03;100.00
36600;BME280;35385;55.668;37.508;2023-02-20T05:26:35;97197.03;;;-5.30;100.00
36600;BME280;35385;55.668;37.508;2023-02-20T05:27:36;97249.13;;;-4.86;100.00
36600;BME280;35385;55.668;37.508;2023-02-20T05:28:37;97246.31;;;-4.97;100.00
36600;BME280;35385;55.668;37.508;2023-02-20T05:29:46;97229.69;;;-4.95;100.00
36600;BME280;35385;55.668;37.508;2023-02-20T05:30:47;97252.34;;;-4.97;100.00
36600;BME280;35385;55.668;37.508;2023-02-20T05:31:48;97226.56;;;-5.16;100.00
36600;BME280;35385;55.668;37.508;2023-02-20T05:32:48;97254.38;;;-5.02;100.00
36600;BME280;35385;55.668;37.508;2023-02-20T05:33:49;97242.19;;;-5.02;100.00
36600;BME280;35385;55.668;37.508;2023-02-20T05:34:49;97206.28;;;-5.25;100.00
36600;BME280;35385;55.668;37.508;2023-02-20T05:35:50;97189.78;;;-5.40;100.00
36600;BME280;35385;55.668;37.508;2023-02-20T05:36:51;97248.97;;;-5.13;100.00
36600;BME280;35385;55.668;37.508;2023-02-20T05:37:52;97247.31;;;-5.00;100.00
36600;BME280;35385;55.668;37.508;2023-02-20T05:38:52;97244.16;;;-5.05;100.00
36600;BME280;35385;55.668;37.508;2023-02-20T05:39:53;97248.53;;;-5.06;100.00
36600;BME280;35385;55.668;37.508;2023-02-20T05:40:54;97255.81;;;-4.96;100.00
36600;BME280;35385;55.668;37.508;2023-02-20T05:41:54;97248.28;;;-4.87;100.00
36600;BME280;35385;55.668;37.508;2023-02-20T05:42:55;97250.78;;;-4.85;100.00
36600;BME280;35385;55.668;37.508;2023-02-20T05:43:55;97256.47;;;-4.93;100.00
36600;BME280;35385;55.668;37.508;2023-02-20T05:44:56;97266.38;;;-5.00;100.00
36600;BME280;35385;55.668;37.508;2023-02-20T05:45:57;97256.22;;;-5.04;100.00
36600;BME280;35385;55.668;37.508;2023-02-20T05:46:58;97217.59;;;-5.26;100.00
36600;BME280;35385;55.668;37.508;2023-02-20T05:47:58;97257.41;;;-4.94;100.00
36600;BME280;35385;55.668;37.508;2023-02-20T05:48:59;97259.03;;;-5.07;100.00
36600;BME280;35385;55.668;37.508;2023-02-20T05:49:59;97258.13;;;-5.06;100.00
36600;BME280;35385;55.668;37.508;2023-02-20T05:51:00;97253.41;;;-5.15;100.00
36600;BME280;35385;55.668;37.508;2023-02-20T05:52:01;97270.56;;;-5.27;100.00
36600;BME280;35385;55.668;37.508;2023-02-20T05:53:03;97262.16;;;-5.16;100.00
36600;BME280;35385;55.668;37.508;2023-02-20T05:54:04;97255.97;;;-5.29;100.00
36600;BME280;35385;55.668;37.508;2023-02-20T05:55:05;97240.72;;;-5.36;100.00
36600;BME280;35385;55.668;37.508;2023-02-20T05:56:05;97258.91;;;-5.20;100.00
36600;BME280;35385;55.668;37.508;2023-02-20T05:57:07;97246.00;;;-5.37;100.00